createdAt,value
2018-05-11T00:00:45.626Z,11.31
2018-05-11T00:01:45.587Z,11.26
2018-05-11T00:02:45.542Z,11.26
2018-05-11T00:03:45.500Z,11.33
2018-05-11T00:04:45.452Z,11.19
2018-05-11T00:05:45.410Z,11.19
2018-05-11T00:06:45.368Z,11.16
2018-05-11T00:07:45.322Z,11.10
2018-05-11T00:08:45.280Z,11.15
2018-05-11T00:09:45.234Z,11.04
2018-05-11T00:10:45.189Z,11.10
2018-05-11T00:11:45.148Z,11.05
2018-05-11T00:12:45.104Z,11.10
2018-05-11T00:13:45.060Z,11.05
2018-05-11T00:14:45.016Z,11.05
2018-05-11T00:15:44.975Z,11.05
2018-05-11T00:16:44.929Z,10.95
2018-05-11T00:17:44.887Z,10.89
2018-05-11T00:18:44.842Z,10.95
2018-05-11T00:19:44.800Z,10.94
2018-05-11T00:20:44.757Z,10.79
2018-05-11T00:21:44.711Z,10.80
2018-05-11T00:22:44.674Z,10.80
2018-05-11T00:23:44.624Z,10.72
2018-05-11T00:24:44.581Z,10.79
2018-05-11T00:25:44.539Z,10.69
2018-05-11T00:26:44.494Z,10.71
2018-05-11T00:27:44.455Z,10.72
2018-05-11T00:28:44.406Z,10.71
2018-05-11T00:29:44.363Z,10.58
2018-05-11T00:30:44.319Z,10.62
2018-05-11T00:31:44.274Z,10.64
2018-05-11T00:32:44.231Z,10.59
2018-05-11T00:33:44.186Z,10.57
2018-05-11T00:34:44.141Z,10.53
2018-05-11T00:35:44.351Z,10.55
2018-05-11T00:36:44.060Z,10.53
2018-05-11T00:37:44.011Z,10.55
2018-05-11T00:38:43.970Z,10.46
2018-05-11T00:39:43.923Z,10.48
2018-05-11T00:40:43.882Z,10.49
2018-05-11T00:41:43.836Z,10.46
2018-05-11T00:42:43.793Z,10.45
2018-05-11T00:43:43.750Z,10.34
2018-05-11T00:44:43.703Z,10.42
2018-05-11T00:45:43.660Z,10.34
2018-05-11T00:46:43.616Z,10.36
2018-05-11T00:47:43.572Z,10.30
2018-05-11T00:48:43.529Z,10.25
2018-05-11T00:49:43.487Z,10.28
2018-05-11T00:50:43.442Z,10.27
2018-05-11T00:51:43.399Z,10.23
2018-05-11T00:52:43.351Z,10.31
2018-05-11T00:53:43.309Z,10.24
2018-05-11T00:54:43.266Z,10.21
2018-05-11T00:55:43.238Z,10.20
2018-05-11T00:56:43.179Z,10.15
2018-05-11T00:57:43.133Z,10.12
2018-05-11T00:58:43.089Z,10.13
2018-05-11T00:59:43.045Z,9.99
2018-05-11T01:00:43.001Z,9.99
2018-05-11T01:01:42.956Z,10.02
2018-05-11T01:02:42.912Z,10.02
2018-05-11T01:03:42.874Z,10.02
2018-05-11T01:04:42.823Z,9.94
2018-05-11T01:05:42.780Z,10.02
2018-05-11T01:06:42.736Z,9.97
2018-05-11T01:07:42.694Z,9.95
2018-05-11T01:08:42.648Z,9.87
2018-05-11T01:09:42.604Z,9.88
2018-05-11T01:10:42.559Z,9.85
2018-05-11T01:11:42.518Z,9.85
2018-05-11T01:12:42.471Z,9.92
2018-05-11T01:13:42.428Z,9.85
2018-05-11T01:14:42.387Z,9.84
2018-05-11T01:15:42.340Z,9.80
2018-05-11T01:16:42.296Z,9.81
2018-05-11T01:17:42.250Z,9.77
2018-05-11T01:18:42.208Z,9.72
2018-05-11T01:19:42.163Z,9.76
2018-05-11T01:20:42.117Z,9.74
2018-05-11T01:21:42.073Z,9.66
2018-05-11T01:22:42.031Z,9.64
2018-05-11T01:23:41.992Z,9.63
2018-05-11T01:24:41.946Z,9.66
2018-05-11T01:25:41.896Z,9.67
2018-05-11T01:26:41.855Z,9.63
2018-05-11T01:27:41.815Z,9.63
2018-05-11T01:28:41.763Z,9.63
2018-05-11T01:29:41.723Z,9.56
2018-05-11T01:30:41.676Z,9.55
2018-05-11T01:31:41.632Z,9.55
2018-05-11T01:32:41.587Z,9.52
2018-05-11T01:33:41.542Z,9.52
2018-05-11T01:34:41.499Z,9.56
2018-05-11T01:35:41.453Z,9.48
2018-05-11T01:36:41.413Z,9.62
2018-05-11T01:37:41.370Z,9.59
2018-05-11T01:38:41.321Z,9.54
2018-05-11T01:39:41.280Z,9.51
2018-05-11T01:40:41.231Z,9.48
2018-05-11T01:41:41.188Z,9.40
2018-05-11T01:42:41.143Z,9.48
2018-05-11T01:43:41.098Z,9.49
2018-05-11T01:44:41.057Z,9.48
2018-05-11T01:45:41.020Z,9.40
2018-05-11T01:46:40.967Z,9.44
2018-05-11T01:47:40.921Z,9.36
2018-05-11T01:48:40.880Z,9.39
2018-05-11T01:49:40.831Z,9.40
2018-05-11T01:50:40.787Z,9.39
2018-05-11T01:51:40.742Z,9.39
2018-05-11T01:52:40.705Z,9.34
2018-05-11T01:53:40.655Z,9.37
2018-05-11T01:54:40.609Z,9.30
2018-05-11T01:55:40.571Z,9.34
2018-05-11T01:56:40.521Z,9.30
2018-05-11T01:57:40.476Z,9.33
2018-05-11T01:58:40.434Z,9.27
2018-05-11T01:59:40.385Z,9.22
2018-05-11T02:00:40.344Z,9.29
2018-05-11T02:01:40.300Z,9.24
2018-05-11T02:02:40.255Z,9.22
2018-05-11T02:03:40.211Z,9.19
2018-05-11T02:04:40.164Z,9.19
2018-05-11T02:05:40.123Z,9.24
2018-05-11T02:06:40.074Z,9.27
2018-05-11T02:07:40.033Z,9.24
2018-05-11T02:08:39.986Z,9.15
2018-05-11T02:09:39.945Z,9.13
2018-05-11T02:10:39.899Z,9.11
2018-05-11T02:11:39.854Z,9.00
2018-05-11T02:12:39.810Z,9.12
2018-05-11T02:13:39.767Z,9.03
2018-05-11T02:14:39.721Z,9.15
2018-05-11T02:15:39.678Z,9.13
2018-05-11T02:16:39.633Z,9.15
2018-05-11T02:17:39.586Z,9.08
2018-05-11T02:18:39.559Z,9.11
2018-05-11T02:19:39.496Z,9.12
2018-05-11T02:20:39.453Z,9.15
2018-05-11T02:21:39.408Z,9.05
2018-05-11T02:22:39.364Z,9.03
2018-05-11T02:23:39.322Z,9.11
2018-05-11T02:24:39.274Z,8.99
2018-05-11T02:25:39.229Z,8.99
2018-05-11T02:26:39.183Z,9.02
2018-05-11T02:27:39.138Z,8.97
2018-05-11T02:28:39.094Z,8.92
2018-05-11T02:29:39.052Z,8.86
2018-05-11T02:30:39.005Z,8.89
2018-05-11T02:31:38.961Z,8.89
2018-05-11T02:32:38.915Z,8.90
2018-05-11T02:33:38.876Z,8.95
2018-05-11T02:34:38.827Z,8.92
2018-05-11T02:35:38.781Z,8.89
2018-05-11T02:36:38.738Z,8.82
2018-05-11T02:37:38.695Z,8.81
2018-05-11T02:38:38.649Z,8.89
2018-05-11T02:39:38.606Z,8.87
2018-05-11T02:40:38.560Z,8.71
2018-05-11T02:41:38.525Z,8.86
2018-05-11T02:42:38.472Z,8.78
2018-05-11T02:43:38.427Z,8.82
2018-05-11T02:44:38.380Z,8.68
2018-05-11T02:45:38.335Z,8.74
2018-05-11T02:46:38.293Z,8.72
2018-05-11T02:47:38.245Z,8.68
2018-05-11T02:48:38.210Z,8.71
2018-05-11T02:49:38.156Z,8.66
2018-05-11T02:50:38.126Z,8.60
2018-05-11T02:51:38.066Z,8.68
2018-05-11T02:52:38.023Z,8.59
2018-05-11T02:53:37.979Z,8.71
2018-05-11T02:54:37.935Z,8.60
2018-05-11T02:55:37.887Z,8.57
2018-05-11T02:56:37.847Z,8.63
2018-05-11T02:57:37.798Z,8.59
2018-05-11T02:58:37.751Z,8.50
2018-05-11T02:59:37.707Z,8.60
2018-05-11T03:00:37.664Z,8.59
2018-05-11T03:01:37.619Z,8.63
2018-05-11T03:02:37.573Z,8.59
2018-05-11T03:03:37.529Z,8.46
2018-05-11T03:04:37.487Z,8.52
2018-05-11T03:05:37.438Z,8.54
2018-05-11T03:06:37.391Z,8.52
2018-05-11T03:07:37.349Z,8.52
2018-05-11T03:08:37.307Z,8.52
2018-05-11T03:09:37.258Z,8.50
2018-05-11T03:10:37.323Z,8.52
2018-05-11T03:11:37.169Z,8.46
2018-05-11T03:12:37.125Z,8.49
2018-05-11T03:13:37.080Z,8.44
2018-05-11T03:14:37.032Z,8.44
2018-05-11T03:15:36.988Z,8.46
2018-05-11T03:16:36.945Z,8.46
2018-05-11T03:17:36.899Z,8.39
2018-05-11T03:18:36.923Z,8.42
2018-05-11T03:19:36.809Z,8.49
2018-05-11T03:20:36.762Z,8.50
2018-05-11T03:21:36.719Z,8.38
2018-05-11T03:22:36.673Z,8.39
2018-05-11T03:23:36.630Z,8.41
2018-05-11T03:24:36.586Z,8.38
2018-05-11T03:25:36.542Z,8.41
2018-05-11T03:26:36.501Z,8.32
2018-05-11T03:27:36.453Z,8.32
2018-05-11T03:28:36.405Z,8.39
2018-05-11T03:29:36.359Z,8.36
2018-05-11T03:30:36.319Z,8.31
2018-05-11T03:31:36.274Z,8.31
2018-05-11T03:32:36.226Z,8.27
2018-05-11T03:33:36.180Z,8.27
2018-05-11T03:34:36.138Z,8.32
2018-05-11T03:35:36.093Z,8.28
2018-05-11T03:36:36.043Z,8.31
2018-05-11T03:37:36.002Z,8.31
2018-05-11T03:38:35.960Z,8.32
2018-05-11T03:39:35.910Z,8.26
2018-05-11T03:40:35.863Z,8.24
2018-05-11T03:41:35.826Z,8.21
2018-05-11T03:42:35.775Z,8.28
2018-05-11T03:43:35.728Z,8.28
2018-05-11T03:44:35.687Z,8.18
2018-05-11T03:45:35.639Z,8.32
2018-05-11T03:46:35.599Z,8.18
2018-05-11T03:47:35.547Z,8.34
2018-05-11T03:48:35.505Z,8.34
2018-05-11T03:49:35.460Z,8.18
2018-05-11T03:50:35.413Z,8.16
2018-05-11T03:51:35.370Z,8.18
2018-05-11T03:52:35.324Z,8.20
2018-05-11T03:53:35.277Z,8.24
2018-05-11T03:54:35.231Z,8.18
2018-05-11T03:55:35.187Z,8.14
2018-05-11T03:56:35.216Z,8.23
2018-05-11T03:57:35.100Z,8.24
2018-05-11T03:58:35.052Z,8.14
2018-05-11T03:59:35.006Z,8.20
2018-05-11T04:00:34.965Z,8.17
2018-05-11T04:01:34.920Z,8.21
2018-05-11T04:02:34.871Z,8.18
2018-05-11T04:03:34.826Z,8.20
2018-05-11T04:04:34.782Z,8.18
2018-05-11T04:05:34.739Z,8.23
2018-05-11T04:06:34.695Z,8.16
2018-05-11T04:07:34.650Z,8.17
2018-05-11T04:08:34.601Z,8.14
2018-05-11T04:09:34.556Z,8.16
2018-05-11T04:10:34.513Z,8.17
2018-05-11T04:11:34.467Z,8.20
2018-05-11T04:12:34.422Z,8.18
2018-05-11T04:13:34.376Z,8.11
2018-05-11T04:14:34.330Z,8.13
2018-05-11T04:15:34.290Z,8.17
2018-05-11T04:16:34.239Z,8.17
2018-05-11T04:17:34.195Z,8.23
2018-05-11T04:18:34.149Z,8.16
2018-05-11T04:19:34.106Z,8.17
2018-05-11T04:20:34.059Z,8.18
2018-05-11T04:21:34.015Z,8.21
2018-05-11T04:22:34.027Z,8.17
2018-05-11T04:23:33.923Z,8.18
2018-05-11T04:24:33.884Z,8.20
2018-05-11T04:25:33.836Z,8.18
2018-05-11T04:26:33.792Z,8.18
2018-05-11T04:27:33.744Z,8.17
2018-05-11T04:28:33.697Z,8.18
2018-05-11T04:29:33.654Z,8.23
2018-05-11T04:30:33.613Z,8.17
2018-05-11T04:31:33.560Z,8.31
2018-05-11T04:32:33.522Z,8.32
2018-05-11T04:33:33.471Z,8.32
2018-05-11T04:34:33.433Z,8.28
2018-05-11T04:35:33.384Z,8.35
2018-05-11T04:36:33.340Z,8.36
2018-05-11T04:37:33.298Z,8.31
2018-05-11T04:38:33.253Z,8.34
2018-05-11T04:39:33.206Z,8.36
2018-05-11T04:40:33.155Z,8.44
2018-05-11T04:41:33.113Z,8.44
2018-05-11T04:42:33.067Z,8.44
2018-05-11T04:43:33.022Z,8.46
2018-05-11T04:44:32.980Z,8.46
2018-05-11T04:45:32.935Z,8.46
2018-05-11T04:46:32.888Z,8.50
2018-05-11T04:47:32.898Z,8.49
2018-05-11T04:48:32.798Z,8.50
2018-05-11T04:49:32.750Z,8.53
2018-05-11T04:50:32.706Z,8.57
2018-05-11T04:51:32.661Z,8.57
2018-05-11T04:52:32.614Z,8.61
2018-05-11T04:53:32.573Z,8.69
2018-05-11T04:54:32.531Z,8.59
2018-05-11T04:55:32.484Z,8.60
2018-05-11T04:56:32.436Z,8.54
2018-05-11T04:57:32.392Z,8.64
2018-05-11T04:58:32.346Z,8.68
2018-05-11T04:59:32.308Z,8.69
2018-05-11T05:00:32.254Z,8.64
2018-05-11T05:01:32.209Z,8.74
2018-05-11T05:02:32.165Z,8.72
2018-05-11T05:03:32.121Z,8.77
2018-05-11T05:04:32.076Z,8.84
2018-05-11T05:05:32.032Z,8.93
2018-05-11T05:06:31.985Z,8.92
2018-05-11T05:07:31.940Z,8.97
2018-05-11T05:08:31.894Z,9.09
2018-05-11T05:09:31.851Z,9.02
2018-05-11T05:10:31.808Z,9.19
2018-05-11T05:11:31.764Z,9.19
2018-05-11T05:12:31.716Z,9.24
2018-05-11T05:13:31.675Z,9.29
2018-05-11T05:14:31.629Z,9.39
2018-05-11T05:15:31.584Z,9.42
2018-05-11T05:16:31.539Z,9.49
2018-05-11T05:17:31.493Z,9.49
2018-05-11T05:18:31.448Z,9.58
2018-05-11T05:19:31.403Z,9.69
2018-05-11T05:20:31.361Z,9.64
2018-05-11T05:21:31.317Z,9.76
2018-05-11T05:22:31.272Z,9.81
2018-05-11T05:23:31.223Z,9.84
2018-05-11T05:24:31.181Z,9.87
2018-05-11T05:25:31.139Z,9.97
2018-05-11T05:26:31.096Z,10.06
2018-05-11T05:27:31.046Z,10.10
2018-05-11T05:28:31.006Z,10.17
2018-05-11T05:29:30.957Z,10.10
2018-05-11T05:30:30.914Z,10.34
2018-05-11T05:31:30.870Z,10.36
2018-05-11T05:32:30.831Z,10.36
2018-05-11T05:33:30.786Z,10.48
2018-05-11T05:34:30.736Z,10.51
2018-05-11T05:35:30.690Z,10.62
2018-05-11T05:36:30.647Z,10.69
2018-05-11T05:37:30.604Z,10.71
2018-05-11T05:38:30.560Z,10.79
2018-05-11T05:39:30.514Z,10.82
2018-05-11T05:40:30.471Z,10.90
2018-05-11T05:41:30.426Z,10.94
2018-05-11T05:42:30.383Z,11.01
2018-05-11T05:43:30.341Z,11.04
2018-05-11T05:44:30.299Z,11.19
2018-05-11T05:45:30.253Z,11.15
2018-05-11T05:46:30.207Z,11.20
2018-05-11T05:47:30.170Z,11.27
2018-05-11T05:48:30.133Z,11.37
2018-05-11T05:49:30.083Z,11.43
2018-05-11T05:50:30.034Z,11.43
2018-05-11T05:51:29.997Z,11.45
2018-05-11T05:52:29.946Z,11.49
2018-05-11T05:53:29.906Z,11.59
2018-05-11T05:54:29.862Z,11.60
2018-05-11T05:55:29.814Z,11.58
2018-05-11T05:56:29.772Z,11.56
2018-05-11T05:57:29.726Z,11.70
2018-05-11T05:58:29.782Z,11.78
2018-05-11T05:59:29.638Z,11.71
2018-05-11T06:00:29.643Z,11.74
2018-05-11T06:01:29.551Z,11.85
2018-05-11T06:02:29.596Z,11.86
2018-05-11T06:03:29.465Z,11.93
2018-05-11T06:04:29.473Z,11.96
2018-05-11T06:05:29.377Z,12.05
2018-05-11T06:06:29.350Z,11.97
2018-05-11T06:07:29.293Z,12.02
2018-05-11T06:08:29.246Z,12.12
2018-05-11T06:09:29.205Z,12.15
2018-05-11T06:10:29.160Z,12.23
2018-05-11T06:11:29.117Z,12.29
2018-05-11T06:12:29.088Z,12.21
2018-05-11T06:13:29.033Z,12.23
2018-05-11T06:14:28.991Z,12.30
2018-05-11T06:15:28.951Z,12.32
2018-05-11T06:16:28.900Z,12.44
2018-05-11T06:17:28.857Z,12.40
2018-05-11T06:18:28.814Z,12.45
2018-05-11T06:19:28.771Z,12.50
2018-05-11T06:20:28.730Z,12.48
2018-05-11T06:21:28.686Z,12.48
2018-05-11T06:22:28.643Z,12.61
2018-05-11T06:23:28.597Z,12.63
2018-05-11T06:24:28.553Z,12.65
2018-05-11T06:25:28.512Z,12.70
2018-05-11T06:26:28.466Z,12.73
2018-05-11T06:27:28.430Z,12.84
2018-05-11T06:28:28.384Z,12.83
2018-05-11T06:29:28.337Z,12.86
2018-05-11T06:30:28.295Z,12.93
2018-05-11T06:31:28.250Z,12.91
2018-05-11T06:32:28.210Z,13.02
2018-05-11T06:33:28.165Z,13.03
2018-05-11T06:34:28.200Z,13.03
2018-05-11T06:35:28.079Z,13.21
2018-05-11T06:36:28.038Z,13.19
2018-05-11T06:37:27.997Z,13.17
2018-05-11T06:38:27.949Z,13.30
2018-05-11T06:39:27.907Z,13.30
2018-05-11T06:40:27.941Z,13.42
2018-05-11T06:41:27.824Z,13.46
2018-05-11T06:42:27.781Z,13.55
2018-05-11T06:43:27.741Z,13.54
2018-05-11T06:44:27.697Z,13.73
2018-05-11T06:45:27.650Z,13.67
2018-05-11T06:46:27.607Z,13.71
2018-05-11T06:47:27.563Z,13.80
2018-05-11T06:48:27.524Z,13.87
2018-05-11T06:49:27.484Z,13.93
2018-05-11T06:50:27.434Z,14.03
2018-05-11T06:51:27.395Z,14.15
2018-05-11T06:52:27.352Z,14.23
2018-05-11T06:53:27.312Z,14.30
2018-05-11T06:54:27.269Z,14.41
2018-05-11T06:55:27.229Z,14.45
2018-05-11T06:56:27.183Z,14.52
2018-05-11T06:57:27.140Z,14.56
2018-05-11T06:58:27.100Z,14.62
2018-05-11T06:59:27.055Z,14.81
2018-05-11T07:00:27.016Z,14.85
2018-05-11T07:01:27.004Z,14.93
2018-05-11T07:02:26.929Z,14.97
2018-05-11T07:03:26.884Z,15.08
2018-05-11T07:04:26.844Z,15.14
2018-05-11T07:05:26.802Z,15.18
2018-05-11T07:06:26.762Z,15.15
2018-05-11T07:07:26.716Z,15.27
2018-05-11T07:08:26.678Z,15.36
2018-05-11T07:09:26.633Z,15.35
2018-05-11T07:10:26.590Z,15.52
2018-05-11T07:11:26.548Z,15.57
2018-05-11T07:12:26.505Z,15.54
2018-05-11T07:13:26.474Z,15.62
2018-05-11T07:14:26.422Z,15.66
2018-05-11T07:15:26.380Z,15.70
2018-05-11T07:16:26.342Z,15.76
2018-05-11T07:17:26.297Z,15.80
2018-05-11T07:18:26.255Z,15.87
2018-05-11T07:19:26.305Z,15.90
2018-05-11T07:20:26.179Z,16.02
2018-05-11T07:21:26.129Z,16.17
2018-05-11T07:22:26.090Z,16.22
2018-05-11T07:23:26.048Z,16.10
2018-05-11T07:24:26.005Z,16.16
2018-05-11T07:25:25.969Z,16.32
2018-05-11T07:26:25.923Z,16.36
2018-05-11T07:27:25.884Z,16.47
2018-05-11T07:28:25.839Z,16.54
2018-05-11T07:29:25.797Z,16.55
2018-05-11T07:30:25.755Z,16.64
2018-05-11T07:31:25.715Z,16.68
2018-05-11T07:32:25.676Z,16.76
2018-05-11T07:33:25.643Z,16.84
2018-05-11T07:34:25.589Z,16.87
2018-05-11T07:35:25.557Z,16.86
2018-05-11T07:36:25.512Z,16.77
2018-05-11T07:37:25.471Z,16.82
2018-05-11T07:38:25.424Z,16.84
2018-05-11T07:39:25.390Z,16.84
2018-05-11T07:40:25.400Z,16.87
2018-05-11T07:41:25.303Z,16.94
2018-05-11T07:42:25.264Z,16.86
2018-05-11T07:43:25.318Z,16.95
2018-05-11T07:44:25.178Z,17.10
2018-05-11T07:45:25.140Z,17.34
2018-05-11T07:46:25.099Z,17.73
2018-05-11T07:47:25.063Z,18.06
2018-05-11T07:48:25.016Z,18.42
2018-05-11T07:49:24.978Z,18.66
2018-05-11T07:50:24.935Z,19.00
2018-05-11T07:51:24.894Z,19.29
2018-05-11T07:52:24.852Z,19.56
2018-05-11T07:53:24.811Z,19.66
2018-05-11T07:54:24.771Z,19.89
2018-05-11T07:55:24.735Z,20.15
2018-05-11T07:56:24.691Z,20.22
2018-05-11T07:57:24.653Z,20.46
2018-05-11T07:58:24.608Z,20.60
2018-05-11T07:59:24.568Z,20.80
2018-05-11T08:00:24.529Z,20.85
2018-05-11T08:01:24.491Z,21.01
2018-05-11T08:02:24.450Z,21.11
2018-05-11T08:03:24.410Z,21.33
2018-05-11T08:04:24.366Z,21.33
2018-05-11T08:05:24.328Z,21.20
2018-05-11T08:06:24.286Z,20.71
2018-05-11T08:07:24.268Z,20.67
2018-05-11T08:08:24.228Z,20.59
2018-05-11T08:09:24.167Z,20.30
2018-05-11T08:10:24.126Z,20.08
2018-05-11T08:11:24.089Z,19.77
2018-05-11T08:12:24.051Z,19.66
2018-05-11T08:13:24.013Z,19.48
2018-05-11T08:14:24.102Z,19.42
2018-05-11T08:15:23.931Z,19.34
2018-05-11T08:16:23.893Z,19.30
2018-05-11T08:17:23.850Z,19.70
2018-05-11T08:18:23.895Z,19.85
2018-05-11T08:19:23.765Z,20.04
2018-05-11T08:20:23.728Z,20.26
2018-05-11T08:21:23.725Z,20.34
2018-05-11T08:22:23.648Z,20.10
2018-05-11T08:23:23.611Z,20.12
2018-05-11T08:24:23.568Z,20.30
2018-05-11T08:25:23.531Z,20.74
2018-05-11T08:26:23.486Z,20.93
2018-05-11T08:27:23.451Z,20.53
2018-05-11T08:28:23.408Z,20.55
2018-05-11T08:29:23.368Z,20.40
2018-05-11T08:30:23.327Z,20.30
2018-05-11T08:31:23.288Z,20.33
2018-05-11T08:32:23.247Z,20.67
2018-05-11T08:33:23.209Z,21.05
2018-05-11T08:34:23.170Z,21.37
2018-05-11T08:35:23.128Z,21.74
2018-05-11T08:36:23.091Z,21.94
2018-05-11T08:37:23.050Z,22.22
2018-05-11T08:38:23.012Z,22.36
2018-05-11T08:39:22.970Z,22.56
2018-05-11T08:40:22.940Z,22.56
2018-05-11T08:41:22.892Z,22.67
2018-05-11T08:42:22.852Z,22.81
2018-05-11T08:43:22.813Z,22.52
2018-05-11T08:44:22.774Z,22.23
2018-05-11T08:45:22.735Z,22.01
2018-05-11T08:46:22.713Z,21.81
2018-05-11T08:47:22.659Z,21.68
2018-05-11T08:48:22.617Z,21.81
2018-05-11T08:49:22.582Z,22.10
2018-05-11T08:50:22.539Z,22.23
2018-05-11T08:51:22.501Z,22.38
2018-05-11T08:52:22.467Z,22.49
2018-05-11T08:53:22.429Z,22.65
2018-05-11T08:54:22.389Z,22.62
2018-05-11T08:55:22.351Z,22.80
2018-05-11T08:56:22.312Z,22.86
2018-05-11T08:57:22.270Z,22.70
2018-05-11T08:58:22.232Z,22.63
2018-05-11T08:59:22.195Z,22.67
2018-05-11T09:00:22.154Z,22.76
2018-05-11T09:01:22.118Z,22.63
2018-05-11T09:02:22.079Z,22.52
2018-05-11T09:03:22.041Z,22.33
2018-05-11T09:04:22.000Z,22.16
2018-05-11T09:05:21.962Z,22.10
2018-05-11T09:06:21.922Z,21.99
2018-05-11T09:07:22.000Z,22.07
2018-05-11T09:08:21.895Z,22.26
2018-05-11T09:09:21.815Z,22.12
2018-05-11T09:10:21.776Z,22.14
2018-05-11T09:11:21.795Z,22.23
2018-05-11T09:12:21.702Z,22.40
2018-05-11T09:13:21.657Z,22.51
2018-05-11T09:14:21.622Z,22.71
2018-05-11T09:15:21.588Z,22.59
2018-05-11T09:16:21.563Z,22.65
2018-05-11T09:17:21.506Z,22.51
2018-05-11T09:18:21.465Z,22.59
2018-05-11T09:19:21.428Z,22.44
2018-05-11T09:20:21.388Z,22.37
2018-05-11T09:21:21.375Z,22.36
2018-05-11T09:22:21.312Z,22.41
2018-05-11T09:23:21.281Z,22.49
2018-05-11T09:24:21.238Z,22.63
2018-05-11T09:25:21.198Z,22.67
2018-05-11T09:26:21.157Z,22.74
2018-05-11T09:27:21.123Z,22.71
2018-05-11T09:28:21.091Z,22.76
2018-05-11T09:29:21.046Z,22.81
2018-05-11T09:30:21.008Z,22.80
2018-05-11T09:31:20.971Z,22.77
2018-05-11T09:32:20.938Z,22.58
2018-05-11T09:33:20.904Z,22.63
2018-05-11T09:34:20.859Z,22.61
2018-05-11T09:35:20.820Z,22.44
2018-05-11T09:36:20.828Z,22.43
2018-05-11T09:37:20.802Z,22.28
2018-05-11T09:38:20.708Z,22.25
2018-05-11T09:39:20.669Z,22.26
2018-05-11T09:40:20.632Z,22.51
2018-05-11T09:41:20.594Z,22.41
2018-05-11T09:42:20.557Z,22.36
2018-05-11T09:43:20.618Z,22.30
2018-05-11T09:44:20.480Z,22.23
2018-05-11T09:45:20.446Z,22.12
2018-05-11T09:46:20.409Z,22.04
2018-05-11T09:47:20.368Z,22.07
2018-05-11T09:48:20.333Z,21.97
2018-05-11T09:49:20.295Z,21.85
2018-05-11T09:50:20.252Z,21.77
2018-05-11T09:51:20.216Z,21.83
2018-05-11T09:52:20.194Z,22.00
2018-05-11T09:53:20.141Z,22.04
2018-05-11T09:55:20.067Z,22.30
2018-05-11T09:56:20.035Z,22.46
2018-05-11T09:57:19.993Z,22.49
2018-05-11T09:58:19.953Z,22.59
2018-05-11T09:59:19.910Z,22.68
2018-05-11T10:00:19.872Z,22.74
2018-05-11T10:01:19.836Z,22.83
2018-05-11T10:02:19.798Z,22.84
2018-05-11T10:03:19.765Z,22.89
2018-05-11T10:04:19.731Z,23.08
2018-05-11T10:05:19.699Z,23.06
2018-05-11T10:06:19.649Z,23.20
2018-05-11T10:07:19.609Z,23.20
2018-05-11T10:08:19.573Z,23.34
2018-05-11T10:09:19.535Z,23.42
2018-05-11T10:10:19.496Z,23.54
2018-05-11T10:11:19.605Z,23.56
2018-05-11T10:12:19.422Z,23.59
2018-05-11T10:13:19.385Z,23.64
2018-05-11T10:14:19.353Z,23.58
2018-05-11T10:15:19.313Z,23.51
2018-05-11T10:16:19.277Z,23.71
2018-05-11T10:17:19.236Z,23.77
2018-05-11T10:18:19.198Z,23.94
2018-05-11T10:19:19.168Z,24.14
2018-05-11T10:20:19.123Z,24.13
2018-05-11T10:21:19.086Z,24.09
2018-05-11T10:22:19.051Z,23.95
2018-05-11T10:23:19.017Z,23.88
2018-05-11T10:24:18.975Z,23.81
2018-05-11T10:25:18.940Z,23.79
2018-05-11T10:26:18.901Z,23.71
2018-05-11T10:27:18.863Z,23.70
2018-05-11T10:28:18.831Z,23.56
2018-05-11T10:29:18.790Z,23.66
2018-05-11T10:30:18.753Z,23.63
2018-05-11T10:31:18.720Z,23.42
2018-05-11T10:33:18.640Z,23.29
2018-05-11T10:34:18.602Z,23.62
2018-05-11T10:35:18.572Z,23.66
2018-05-11T10:36:18.528Z,23.66
2018-05-11T10:37:18.492Z,23.86
2018-05-11T10:38:18.454Z,23.94
2018-05-11T10:39:18.420Z,24.03
2018-05-11T10:40:18.380Z,24.25
2018-05-11T10:41:18.346Z,24.32
2018-05-11T10:42:18.306Z,24.48
2018-05-11T10:43:18.268Z,24.66
2018-05-11T10:44:18.230Z,24.77
2018-05-11T10:45:18.193Z,24.86
2018-05-11T10:46:18.157Z,24.99
2018-05-11T10:47:18.120Z,24.94
2018-05-11T10:48:18.088Z,25.11
2018-05-11T10:49:18.050Z,25.21
2018-05-11T10:50:18.011Z,25.30
2018-05-11T10:51:17.974Z,25.51
2018-05-11T10:52:17.936Z,25.51
2018-05-11T10:53:17.907Z,25.55
2018-05-11T10:54:17.866Z,25.59
2018-05-11T10:55:17.829Z,25.71
2018-05-11T10:56:17.792Z,25.99
2018-05-11T10:57:17.755Z,26.27
2018-05-11T10:58:17.719Z,26.42
2018-05-11T10:59:17.684Z,26.60
2018-05-11T11:00:17.657Z,26.92
2018-05-11T11:01:17.615Z,27.10
2018-05-11T11:02:17.650Z,27.29
2018-05-11T11:03:17.546Z,27.61
2018-05-11T11:04:17.505Z,27.93
2018-05-11T11:05:17.471Z,28.18
2018-05-11T11:06:17.435Z,28.53
2018-05-11T11:08:17.366Z,29.47
2018-05-11T11:10:17.295Z,30.38
2018-05-11T11:11:17.264Z,30.13
2018-05-11T11:12:17.225Z,30.10
2018-05-11T11:13:17.197Z,29.99
2018-05-11T11:14:17.156Z,29.64
2018-05-11T11:15:17.120Z,28.92
2018-05-11T11:16:17.088Z,28.50
2018-05-11T11:17:17.057Z,28.35
2018-05-11T11:18:17.041Z,28.56
2018-05-11T11:19:16.986Z,29.20
2018-05-11T11:20:16.949Z,29.89
2018-05-11T11:21:16.914Z,30.16
2018-05-11T11:22:16.879Z,30.39
2018-05-11T11:23:16.846Z,30.61
2018-05-11T11:24:16.814Z,30.91
2018-05-11T11:25:16.779Z,30.96
2018-05-11T11:26:16.744Z,31.05
2018-05-11T11:27:16.710Z,31.35
2018-05-11T11:28:16.676Z,31.60
2018-05-11T11:29:16.643Z,31.57
2018-05-11T11:30:16.607Z,31.35
2018-05-11T11:31:16.575Z,30.67
2018-05-11T11:32:16.538Z,30.36
2018-05-11T11:33:16.507Z,30.38
2018-05-11T11:34:16.523Z,30.85
2018-05-11T11:35:16.439Z,31.42
2018-05-11T11:36:16.405Z,31.77
2018-05-11T11:37:16.371Z,32.27
2018-05-11T11:38:16.337Z,31.98
2018-05-11T11:39:16.302Z,31.23
2018-05-11T11:40:16.269Z,30.89
2018-05-11T11:41:16.236Z,30.76
2018-05-11T11:42:16.204Z,30.26
2018-05-11T11:43:16.166Z,29.80
2018-05-11T11:44:16.135Z,29.32
2018-05-11T11:45:16.106Z,29.65
2018-05-11T11:46:16.068Z,30.80
2018-05-11T11:47:16.039Z,30.95
2018-05-11T11:48:15.998Z,31.39
2018-05-11T11:49:15.966Z,31.90
2018-05-11T11:51:15.905Z,32.79
2018-05-11T11:52:15.866Z,33.04
2018-05-11T11:53:15.829Z,33.36
2018-05-11T11:54:15.802Z,33.61
2018-05-11T11:55:15.763Z,33.79
2018-05-11T11:56:15.733Z,32.93
2018-05-11T11:57:15.697Z,31.95
2018-05-11T11:58:15.662Z,31.20
2018-05-11T11:59:15.631Z,31.37
2018-05-11T12:00:15.598Z,31.02
2018-05-11T12:01:15.562Z,30.44
2018-05-11T12:02:15.529Z,29.98
2018-05-11T12:03:15.495Z,29.50
2018-05-11T12:04:15.461Z,29.43
2018-05-11T12:05:15.430Z,29.44
2018-05-11T12:06:15.394Z,29.27
2018-05-11T12:07:15.358Z,28.94
2018-05-11T12:08:15.326Z,28.67
2018-05-11T12:09:15.291Z,28.46
2018-05-11T12:10:15.256Z,28.27
2018-05-11T12:11:15.225Z,27.98
2018-05-11T12:12:15.191Z,27.76
2018-05-11T12:13:15.154Z,27.94
2018-05-11T12:14:15.135Z,27.88
2018-05-11T12:15:15.087Z,28.03
2018-05-11T12:16:15.050Z,29.05
2018-05-11T12:17:15.028Z,29.95
2018-05-11T12:18:14.980Z,30.61
2018-05-11T12:19:14.955Z,30.59
2018-05-11T12:20:14.911Z,29.98
2018-05-11T12:21:14.874Z,29.84
2018-05-11T12:22:14.839Z,29.55
2018-05-11T12:23:14.807Z,29.22
2018-05-11T12:24:14.770Z,28.83
2018-05-11T12:25:14.737Z,28.45
2018-05-11T12:26:14.787Z,28.06
2018-05-11T12:27:14.667Z,27.82
2018-05-11T12:28:14.633Z,27.58
2018-05-11T12:29:14.596Z,27.66
2018-05-11T12:30:14.559Z,27.97
2018-05-11T12:31:14.527Z,27.90
2018-05-11T12:32:14.490Z,27.79
2018-05-11T12:33:14.455Z,27.85
2018-05-11T12:34:14.418Z,27.79
2018-05-11T12:35:14.387Z,27.71
2018-05-11T12:36:14.352Z,27.66
2018-05-11T12:37:14.314Z,27.48
2018-05-11T12:38:14.286Z,27.29
2018-05-11T12:39:14.244Z,27.22
2018-05-11T12:40:14.209Z,27.22
2018-05-11T12:41:14.173Z,27.18
2018-05-11T12:42:14.136Z,27.03
2018-05-11T12:43:14.107Z,26.97
2018-05-11T12:44:14.067Z,26.88
2018-05-11T12:45:14.039Z,26.85
2018-05-11T12:46:14.000Z,26.97
2018-05-11T12:47:13.959Z,26.85
2018-05-11T12:48:13.926Z,26.96
2018-05-11T12:49:13.894Z,27.01
2018-05-11T12:50:13.856Z,27.05
2018-05-11T12:51:13.824Z,27.08
2018-05-11T12:52:13.783Z,27.11
2018-05-11T12:53:13.754Z,27.15
2018-05-11T12:54:13.709Z,27.10
2018-05-11T12:55:13.675Z,26.98
2018-05-11T12:56:13.638Z,26.92
2018-05-11T12:57:13.609Z,26.76
2018-05-11T12:58:13.569Z,26.53
2018-05-11T12:59:13.534Z,26.44
2018-05-11T13:00:13.496Z,26.41
2018-05-11T13:01:13.461Z,26.33
2018-05-11T13:02:13.618Z,26.27
2018-05-11T13:03:13.391Z,26.19
2018-05-11T13:04:13.362Z,26.30
2018-05-11T13:05:13.320Z,26.34
2018-05-11T13:06:13.282Z,26.29